Airfield :
LOGIN :

Register | Disclaimer

   EN    FR    IT 

 










Legend :    VFR   Marginal VFR   IFR   Intensive IFR   Very Intensive IFR
Visi :
Ceiling :
>= 8 km
>= 3000ft
5 to 8 km
1000 to 3000 ft
1500m to 5 km
500 to 1000 ft
800 to 1500m
200 to 500 ft
< 800m
< 200 ft
Symbols :   Thunderstorms  Fog  Heavy snow  Heavy precipitations  Wind > 20 kt
SIGMETs :     Misc.  Thunderstorms  Icing  Turbulence  Mountain Waves  Volcanic Ashes






- Airport Elevation : 526 ft
- IATA code : LTN


EGGW - London Luton

CURRENT METAR :
  • 172220Z AUTO 16006KT 9999 NCD 09/09 Q1001

EXPIRED METARs :
  • 172150Z AUTO 16006KT 9999 NCD 09/09 Q1002
  • 172120Z AUTO 16006KT 9999 NCD 10/09 Q1002
  • 172050Z AUTO 16007KT 9999 NCD 10/09 Q1002
  • 172020Z AUTO 17006KT 9999 FEW019 10/09 Q1003
  • 171950Z AUTO 17008KT 9999 FEW022 SCT031 10/09 Q1003

TAF TAF EGGW
Valid from the 17 at 18:00 until the 18 at 18:00 UTC


171658Z 1718/1818 17008KT 9999 SCT025
TEMPO 1718/1818 7000 SHRA
PROB30
TEMPO 1800/1808 21015G25KT 3000 +SHRA BKN008CB
BECMG 1806/1809 23012KT
TEMPO 1808/1818 22016G26KT
PROB40
TEMPO 1812/1818 22022G36KT 4000 +SHRA BKN014
ATIS : +44 1582 395 204



MET'MAP, your aeronautical weather chart ! - Copyright ORBIFLY December 2007 - Disclaimer

ORBIFLY MET'MAP TEAM :

Programming & Development : Alexandra Zaïnal
Concept & Development : Baudouin d'Aumeries
Co-Development & Prog : Marc-Olivier Méhu
Technical & hardware support : Manuel Goepfert

Contact : metmap@orbifly.com




SOURCES & CREDITS :

   NOAA